createdAt,value
2023-03-28T16:11:57.698Z,3.40
2023-03-28T16:12:09.696Z,2.40
2023-03-28T16:12:18.788Z,2.10
2023-03-28T16:12:28.966Z,2.20
2023-03-28T16:12:39.018Z,1.60
2023-03-28T16:12:49.084Z,1.40
2023-03-28T16:12:59.287Z,1.30
2023-03-28T16:13:18.616Z,1.20
2023-03-28T16:13:30.067Z,1.90
2023-03-28T16:13:40.082Z,1.90
2023-03-28T16:13:50.253Z,2.00
2023-03-28T16:14:00.352Z,1.00
2023-03-28T16:14:10.231Z,1.50
2023-03-28T16:14:20.401Z,1.70
2023-03-28T16:14:30.617Z,2.10
2023-03-28T16:14:40.643Z,2.10
2023-03-28T16:14:50.938Z,1.80
2023-03-28T16:15:02.043Z,1.40
2023-03-28T16:15:11.165Z,1.60
2023-03-28T16:15:21.239Z,1.70
2023-03-28T16:15:31.393Z,1.70
2023-03-28T16:15:41.475Z,2.20
2023-03-28T16:15:51.766Z,10.60
2023-03-28T16:16:11.891Z,12.20
2023-03-28T16:16:22.942Z,4.10
2023-03-28T16:16:32.138Z,2.30
2023-03-28T16:16:42.213Z,1.90
2023-03-28T16:16:52.449Z,3.90
2023-03-28T16:17:02.495Z,3.90
2023-03-28T16:17:12.718Z,4.10
2023-03-28T16:17:23.833Z,1.90
2023-03-28T16:17:32.943Z,1.70
2023-03-28T16:17:43.866Z,1.50
2023-03-28T16:17:53.150Z,1.60
2023-03-28T16:18:03.287Z,2.00
2023-03-28T16:18:13.399Z,2.10
2023-03-28T16:18:24.260Z,2.20
2023-03-28T16:18:33.641Z,1.60
2023-03-28T16:18:44.675Z,3.20
2023-03-28T16:18:54.424Z,4.80
2023-03-28T16:19:04.054Z,5.50
2023-03-28T16:19:14.171Z,3.80
2023-03-28T16:19:24.263Z,3.60
2023-03-28T16:19:34.309Z,3.70
2023-03-28T16:19:55.338Z,2.30
2023-03-28T16:20:04.696Z,2.10
2023-03-28T16:20:14.892Z,2.60
2023-03-28T16:20:24.957Z,2.70
2023-03-28T16:20:35.027Z,2.60
2023-03-28T16:20:45.155Z,6.10
2023-03-28T16:21:05.415Z,15.00
2023-03-28T16:21:15.671Z,20.40
2023-03-28T16:21:25.611Z,17.10
2023-03-28T16:21:35.870Z,19.60
2023-03-28T16:21:46.070Z,10.40
2023-03-28T16:21:57.890Z,11.10
2023-03-28T16:22:06.229Z,12.40
2023-03-28T16:22:16.386Z,14.60
2023-03-28T16:22:26.586Z,14.00
2023-03-28T16:22:36.542Z,5.70
2023-03-28T16:22:46.802Z,4.40
2023-03-28T16:22:56.852Z,4.20
2023-03-28T16:23:07.061Z,2.90
2023-03-28T16:23:17.043Z,1.90
2023-03-28T16:23:27.121Z,1.70
2023-03-28T16:23:37.499Z,1.60
2023-03-28T16:23:47.281Z,1.80
2023-03-28T16:23:57.514Z,1.90
2023-03-28T16:24:07.908Z,2.30
2023-03-28T16:24:18.785Z,2.10
2023-03-28T16:24:27.808Z,2.40
2023-03-28T16:24:38.063Z,2.40
2023-03-28T16:24:48.099Z,2.80
2023-03-28T16:24:58.176Z,2.50
2023-03-28T16:25:08.289Z,2.40
2023-03-28T16:25:19.450Z,2.10
2023-03-28T16:25:28.594Z,2.10
2023-03-28T16:25:38.699Z,1.90
2023-03-28T16:25:48.937Z,1.80
2023-03-28T16:25:58.990Z,2.00
2023-03-28T16:26:09.009Z,2.10
2023-03-28T16:26:29.254Z,2.30
2023-03-28T16:26:39.624Z,2.20
2023-03-28T16:26:49.564Z,2.10
2023-03-28T16:26:59.755Z,1.80
2023-03-28T16:27:09.699Z,2.00
2023-03-28T16:27:19.815Z,2.20
2023-03-28T16:27:30.033Z,2.30
2023-03-28T16:27:40.188Z,2.10
2023-03-28T16:27:50.452Z,2.00
2023-03-28T16:28:00.341Z,1.90
2023-03-28T16:28:10.456Z,2.10
2023-03-28T16:28:20.448Z,2.10
2023-03-28T16:28:31.520Z,2.10
2023-03-28T16:28:40.901Z,2.30
2023-03-28T16:28:50.840Z,2.40
2023-03-28T16:29:00.945Z,2.70
2023-03-28T16:29:11.125Z,2.50
2023-03-28T16:29:21.242Z,2.30
2023-03-28T16:29:31.627Z,2.10
2023-03-28T16:29:41.588Z,1.90
2023-03-28T16:29:51.656Z,2.10
2023-03-28T16:30:02.483Z,2.80
2023-03-28T16:30:12.096Z,3.40
2023-03-28T16:30:22.076Z,3.60
2023-03-28T16:30:32.167Z,3.30
2023-03-28T16:30:42.421Z,3.00
2023-03-28T16:30:52.761Z,2.90
2023-03-28T16:31:12.696Z,2.50
2023-03-28T16:31:22.809Z,2.50
2023-03-28T16:31:33.749Z,2.30
2023-03-28T16:31:43.398Z,2.20
2023-03-28T16:31:53.283Z,2.30
2023-03-28T16:32:03.290Z,2.80
2023-03-28T16:32:13.354Z,3.10
2023-03-28T16:32:23.619Z,3.40
2023-03-28T16:32:44.031Z,6.10
2023-03-28T16:32:53.945Z,5.80
2023-03-28T16:33:04.012Z,5.80
2023-03-28T16:33:14.075Z,2.60
2023-03-28T16:33:24.176Z,2.20
2023-03-28T16:33:34.294Z,1.80
2023-03-28T16:33:44.373Z,1.90
2023-03-28T16:33:54.404Z,1.80
2023-03-28T16:34:06.014Z,1.90
2023-03-28T16:34:14.652Z,2.10
2023-03-28T16:34:24.770Z,3.40
2023-03-28T16:34:34.979Z,4.00
2023-03-28T16:34:45.098Z,3.30
2023-03-28T16:34:55.200Z,2.60
2023-03-28T16:35:05.273Z,2.20
2023-03-28T16:35:15.546Z,2.20
2023-03-28T16:35:25.616Z,2.40
2023-03-28T16:35:35.728Z,4.00
2023-03-28T16:35:45.803Z,8.20
2023-03-28T16:35:56.015Z,8.60
2023-03-28T16:36:06.147Z,6.60
2023-03-28T16:36:16.029Z,4.20
2023-03-28T16:36:26.208Z,4.10
2023-03-28T16:36:36.336Z,3.80
2023-03-28T16:36:46.465Z,2.90
2023-03-28T16:36:56.724Z,2.60
2023-03-28T16:37:06.808Z,2.50
2023-03-28T16:37:16.879Z,2.00
2023-03-28T16:37:27.423Z,4.10
2023-03-28T16:37:37.354Z,4.20
2023-03-28T16:37:47.361Z,4.70
2023-03-28T16:37:57.418Z,2.70
2023-03-28T16:38:07.587Z,2.80
2023-03-28T16:38:17.742Z,3.10
2023-03-28T16:38:27.892Z,4.10
2023-03-28T16:38:38.036Z,3.80
2023-03-28T16:38:48.058Z,3.00
2023-03-28T16:38:58.227Z,1.90
2023-03-28T16:39:08.234Z,1.70
2023-03-28T16:39:18.552Z,1.60
2023-03-28T16:39:28.464Z,1.30
2023-03-28T16:39:38.579Z,1.30
2023-03-28T16:39:49.518Z,1.30
2023-03-28T16:39:59.238Z,1.30
2023-03-28T16:40:09.003Z,1.10
2023-03-28T16:40:19.205Z,1.10
2023-03-28T16:40:29.337Z,3.40
2023-03-28T16:40:39.480Z,4.90
2023-03-28T16:40:50.746Z,4.90
2023-03-28T16:40:59.664Z,2.30
2023-03-28T16:41:10.347Z,1.30
2023-03-28T16:41:19.818Z,1.40
2023-03-28T16:41:30.049Z,1.50
2023-03-28T16:41:40.075Z,1.40
2023-03-28T16:42:00.347Z,1.30
2023-03-28T16:42:10.427Z,2.40
2023-03-28T16:42:20.665Z,2.70
2023-03-28T16:42:30.635Z,2.70
2023-03-28T16:42:40.670Z,1.50
2023-03-28T16:42:50.951Z,1.40
2023-03-28T16:43:01.051Z,2.10
2023-03-28T16:43:11.315Z,2.50
2023-03-28T16:43:21.430Z,2.60
2023-03-28T16:43:31.577Z,2.20
2023-03-28T16:43:41.676Z,1.80
2023-03-28T16:43:51.751Z,1.90
2023-03-28T16:44:01.794Z,1.80
2023-03-28T16:44:11.851Z,2.30
2023-03-28T16:44:22.120Z,2.00
2023-03-28T16:44:32.366Z,2.50
2023-03-28T16:44:42.343Z,2.10
2023-03-28T16:44:52.444Z,2.20
2023-03-28T16:45:03.530Z,2.00
2023-03-28T16:45:12.752Z,2.60
2023-03-28T16:45:22.890Z,2.80
2023-03-28T16:45:33.062Z,2.80
2023-03-28T16:45:43.110Z,7.20
2023-03-28T16:45:53.246Z,8.60
2023-03-28T16:46:12.763Z,6.50
2023-03-28T16:46:24.257Z,5.70
2023-03-28T16:46:33.772Z,4.50
2023-03-28T16:46:44.349Z,2.60
2023-03-28T16:46:53.908Z,1.30
2023-03-28T16:47:03.917Z,5.30
2023-03-28T16:47:14.157Z,6.00
2023-03-28T16:47:33.332Z,1.80
2023-03-28T16:47:44.586Z,1.10
2023-03-28T16:47:54.677Z,0.80
2023-03-28T16:48:05.137Z,0.80
2023-03-28T16:48:14.887Z,1.30
2023-03-28T16:48:24.949Z,1.90
2023-03-28T16:48:35.217Z,2.60
2023-03-28T16:48:45.221Z,3.30
2023-03-28T16:48:55.335Z,2.80
2023-03-28T16:49:06.272Z,2.60
2023-03-28T16:49:15.700Z,2.30
2023-03-28T16:49:25.854Z,6.00
2023-03-28T16:49:35.926Z,5.80
2023-03-28T16:49:46.145Z,5.00
2023-03-28T16:49:56.213Z,1.30
2023-03-28T16:50:06.286Z,1.30
2023-03-28T16:50:16.387Z,1.40
2023-03-28T16:50:26.747Z,2.10
2023-03-28T16:50:37.485Z,2.60
2023-03-28T16:50:46.673Z,2.80
2023-03-28T16:50:56.794Z,2.00
2023-03-28T16:51:06.956Z,1.30
2023-03-28T16:51:17.194Z,0.90
2023-03-28T16:51:27.313Z,1.10
2023-03-28T16:51:47.900Z,1.30
2023-03-28T16:51:57.856Z,1.30
2023-03-28T16:52:07.875Z,1.30
2023-03-28T16:52:18.036Z,1.30
2023-03-28T16:52:29.937Z,1.00
2023-03-28T16:52:38.399Z,0.80
2023-03-28T16:52:48.467Z,0.90
2023-03-28T16:52:58.470Z,1.00
2023-03-28T16:53:08.576Z,1.20
2023-03-28T16:53:18.758Z,1.00
2023-03-28T16:53:29.054Z,1.00
2023-03-28T16:53:38.988Z,1.00
2023-03-28T16:53:49.232Z,1.30
2023-03-28T16:53:59.236Z,1.20
2023-03-28T16:54:09.407Z,0.70
2023-03-28T16:54:19.537Z,0.30
2023-03-28T16:54:29.770Z,0.10
2023-03-28T16:54:39.759Z,0.10
2023-03-28T16:54:49.925Z,0.20
2023-03-28T16:55:00.099Z,0.70
2023-03-28T16:55:10.148Z,1.30
2023-03-28T16:55:20.337Z,2.00
2023-03-28T16:55:30.405Z,1.70
2023-03-28T16:55:40.568Z,1.50
2023-03-28T16:55:50.703Z,0.90
2023-03-28T16:56:00.999Z,0.90
2023-03-28T16:56:10.896Z,0.80
2023-03-28T16:56:21.821Z,2.60
2023-03-28T16:56:31.239Z,2.70
2023-03-28T16:56:41.314Z,2.70
2023-03-28T16:56:52.632Z,1.00
2023-03-28T16:57:01.563Z,1.60
2023-03-28T16:57:11.689Z,1.80
2023-03-28T16:57:31.924Z,1.30
2023-03-28T16:57:42.022Z,1.40
2023-03-28T16:57:52.143Z,1.30
2023-03-28T16:58:02.278Z,1.40
2023-03-28T16:58:12.560Z,1.80
2023-03-28T16:58:22.628Z,1.90
2023-03-28T16:58:32.659Z,1.60
2023-03-28T16:58:42.600Z,1.00
2023-03-28T16:58:52.955Z,0.90
2023-03-28T16:59:03.968Z,0.90
2023-03-28T16:59:13.189Z,1.20
2023-03-28T16:59:23.281Z,1.10
2023-03-28T16:59:33.420Z,1.10
2023-03-28T16:59:43.581Z,0.90
2023-03-28T16:59:53.715Z,1.00
2023-03-28T17:00:14.064Z,0.90
2023-03-28T17:00:24.077Z,1.00
2023-03-28T17:00:34.468Z,1.40
2023-03-28T17:00:44.426Z,1.60
2023-03-28T17:00:54.525Z,1.60
2023-03-28T17:01:05.789Z,1.60
2023-03-28T17:01:14.713Z,1.40
2023-03-28T17:01:25.583Z,1.30
2023-03-28T17:01:34.909Z,1.10
2023-03-28T17:01:45.070Z,1.10
2023-03-28T17:01:55.316Z,1.00
2023-03-28T17:02:15.711Z,1.00
2023-03-28T17:02:25.660Z,1.40
2023-03-28T17:02:35.837Z,1.50
2023-03-28T17:02:45.926Z,1.30
2023-03-28T17:02:56.037Z,1.20
